Time;durP1;ratioP1;P1;durP2;ratioP2;P2;SDS_P1;SDS_P2;PMS_P1;PMS_P2;Temp;Humidity;BMP_temperature;BMP_pressure;BME280_temperature;BME280_humidity;BME280_pressure;Samples;Min_cycle;Max_cycle;Signal;HPM_P1;HPM_P2
2022/10/31 00:01:35;;;;;;;;;;;12.10;99.90;;;;;;5073884;28;19908;-74
2022/10/31 00:04:01;;;;;;;;;;;12.20;99.90;;;;;;5074167;28;19909;-74
2022/10/31 00:06:27;;;;;;;;;;;12.20;99.90;;;;;;5075588;28;20358;-75
2022/10/31 00:08:55;;;;;;;;;;;12.20;99.90;;;;;;5074309;28;19930;-74
2022/10/31 00:11:20;;;;;;;;;;;12.30;99.90;;;;;;5075524;28;19915;-74
2022/10/31 00:13:46;;;;;;;;;;;12.40;99.90;;;;;;5074922;28;19916;-73
2022/10/31 00:16:14;;;;;;;;;;;12.40;99.90;;;;;;5091405;28;20281;-72
2022/10/31 00:18:40;;;;;;;;;;;12.40;99.90;;;;;;5075662;28;20414;-72
2022/10/31 00:21:05;;;;;;;;;;;12.40;99.90;;;;;;5107807;28;20011;-73
2022/10/31 00:23:31;;;;;;;;;;;12.50;99.90;;;;;;5107670;28;19908;-74
2022/10/31 00:26:00;;;;;;;;;;;12.60;99.90;;;;;;5090835;28;20362;-74
2022/10/31 00:28:26;;;;;;;;;;;12.50;99.90;;;;;;5107736;28;19916;-73
2022/10/31 00:30:51;;;;;;;;;;;12.60;99.90;;;;;;5090927;28;19908;-74
2022/10/31 00:33:17;;;;;;;;;;;12.60;99.90;;;;;;5074701;28;19970;-73
2022/10/31 00:35:45;;;;;;;;;;;12.60;99.90;;;;;;5075346;28;19912;-73
2022/10/31 00:38:11;;;;;;;;;;;12.70;99.90;;;;;;5075474;28;19915;-74
2022/10/31 00:40:36;;;;;;;;;;;12.70;99.90;;;;;;5073870;28;20002;-73
2022/10/31 00:43:01;;;;;;;;;;;12.80;99.90;;;;;;5074300;28;19909;-74
2022/10/31 00:45:27;;;;;;;;;;;12.80;99.90;;;;;;5074425;28;19908;-73
2022/10/31 00:47:52;;;;;;;;;;;12.80;99.90;;;;;;5074697;28;19951;-74
2022/10/31 00:50:18;;;;;;;;;;;12.90;99.90;;;;;;5074522;28;19908;-74
2022/10/31 00:52:43;;;;;;;;;;;13.00;99.90;;;;;;5074484;28;19963;-74
2022/10/31 00:55:09;;;;;;;;;;;13.00;99.90;;;;;;5090112;28;19909;-73
2022/10/31 00:57:34;;;;;;;;;;;13.00;99.90;;;;;;5074563;28;19954;-73
2022/10/31 01:00:00;;;;;;;;;;;13.00;99.90;;;;;;5089919;28;19916;-73
2022/10/31 01:02:25;;;;;;;;;;;13.10;99.90;;;;;;5074386;28;19935;-71
2022/10/31 01:04:50;;;;;;;;;;;13.10;99.90;;;;;;5074213;28;19977;-71
2022/10/31 01:07:16;;;;;;;;;;;13.10;99.90;;;;;;5107152;28;19909;-72
2022/10/31 01:09:41;;;;;;;;;;;13.10;99.90;;;;;;5074148;28;19919;-71
2022/10/31 01:12:07;;;;;;;;;;;13.20;99.90;;;;;;5073907;28;19912;-71
2022/10/31 01:14:33;;;;;;;;;;;13.10;99.90;;;;;;5074077;28;19958;-72
2022/10/31 01:16:58;;;;;;;;;;;13.10;99.90;;;;;;5074015;28;20289;-72
2022/10/31 01:19:24;;;;;;;;;;;13.10;99.90;;;;;;5089491;28;19956;-71
2022/10/31 01:21:49;;;;;;;;;;;13.10;99.90;;;;;;5089815;28;19909;-72
2022/10/31 01:24:14;;;;;;;;;;;13.10;99.90;;;;;;5074311;28;19909;-72
2022/10/31 01:26:40;;;;;;;;;;;13.00;99.90;;;;;;5072912;28;19998;-72
2022/10/31 01:29:06;;;;;;;;;;;12.90;99.90;;;;;;5106793;28;19920;-71
2022/10/31 01:31:33;;;;;;;;;;;12.90;99.90;;;;;;5074114;28;19909;-71
2022/10/31 01:33:59;;;;;;;;;;;12.80;99.90;;;;;;5076218;28;19935;-72
2022/10/31 01:36:27;;;;;;;;;;;12.80;99.90;;;;;;5093983;28;19908;-71
2022/10/31 01:38:53;;;;;;;;;;;12.80;99.90;;;;;;5094155;28;20370;-71
2022/10/31 01:41:21;;;;;;;;;;;12.70;99.90;;;;;;5075898;28;19944;-72
2022/10/31 01:43:54;;;;;;;;;;;12.70;99.90;;;;;;5076139;28;19963;-71
2022/10/31 01:46:39;;;;;;;;;;;12.70;99.90;;;;;;5076027;28;19908;-71
2022/10/31 01:49:08;;;;;;;;;;;12.70;99.90;;;;;;5093995;28;20309;-71
2022/10/31 01:51:36;;;;;;;;;;;12.70;99.90;;;;;;5076185;28;19909;-71
2022/10/31 01:54:05;;;;;;;;;;;12.70;99.90;;;;;;5095104;28;20353;-72
2022/10/31 01:56:31;;;;;;;;;;;12.70;99.90;;;;;;5098324;28;19908;-72
2022/10/31 01:58:59;;;;;;;;;;;12.70;99.90;;;;;;5079810;28;19908;-72
2022/10/31 02:01:24;;;;;;;;;;;12.70;99.90;;;;;;5080018;28;19908;-72
2022/10/31 02:03:50;;;;;;;;;;;12.70;99.90;;;;;;5080417;28;19956;-72
2022/10/31 02:06:30;;;;;;;;;;;12.70;99.90;;;;;;5098127;28;19912;-72
2022/10/31 02:08:57;;;;;;;;;;;12.70;99.90;;;;;;5097628;28;19912;-72
2022/10/31 02:11:23;;;;;;;;;;;12.70;99.90;;;;;;5097800;28;20396;-72
2022/10/31 02:13:49;;;;;;;;;;;12.80;99.90;;;;;;5097442;28;19912;-72
2022/10/31 02:16:14;;;;;;;;;;;12.80;99.90;;;;;;5097772;28;19909;-72
2022/10/31 02:18:40;;;;;;;;;;;12.80;99.90;;;;;;5079571;28;19908;-72
2022/10/31 02:23:56;;;;;;;;;;;12.90;99.90;;;;;;5091859;27;19913;-72
2022/10/31 02:26:42;;;;;;;;;;;12.80;99.90;;;;;;5091469;28;20474;-72
2022/10/31 02:29:27;;;;;;;;;;;12.90;99.90;;;;;;5091569;28;19912;-73
2022/10/31 02:32:12;;;;;;;;;;;12.90;99.90;;;;;;5091886;28;19922;-73
2022/10/31 02:34:58;;;;;;;;;;;12.90;99.90;;;;;;5090303;28;20003;-72
2022/10/31 02:37:33;;;;;;;;;;;13.00;99.90;;;;;;5089952;28;19919;-72
2022/10/31 02:40:04;;;;;;;;;;;13.00;99.90;;;;;;5091632;28;19915;-72
2022/10/31 02:42:40;;;;;;;;;;;13.00;99.90;;;;;;5124057;28;19919;-73
2022/10/31 02:45:13;;;;;;;;;;;13.00;99.90;;;;;;5091193;28;20369;-73
2022/10/31 02:47:38;;;;;;;;;;;12.90;99.90;;;;;;5091043;28;19915;-73
2022/10/31 02:50:10;;;;;;;;;;;12.80;99.90;;;;;;5106691;28;20309;-73
2022/10/31 02:52:36;;;;;;;;;;;12.70;99.90;;;;;;5091011;28;19912;-72
2022/10/31 02:55:21;;;;;;;;;;;12.60;99.90;;;;;;5089845;28;19961;-72
2022/10/31 02:57:47;;;;;;;;;;;12.50;99.90;;;;;;5090847;28;19908;-73
2022/10/31 03:00:12;;;;;;;;;;;12.40;99.90;;;;;;5090782;28;19931;-72
2022/10/31 03:02:44;;;;;;;;;;;12.30;99.90;;;;;;5090739;28;19961;-72
2022/10/31 03:05:14;;;;;;;;;;;12.30;99.90;;;;;;5090559;28;19913;-73
2022/10/31 03:07:46;;;;;;;;;;;12.20;99.90;;;;;;5090787;28;19909;-72
2022/10/31 03:10:32;;;;;;;;;;;12.20;99.90;;;;;;5090739;28;20273;-72
2022/10/31 03:13:02;;;;;;;;;;;12.10;99.90;;;;;;5090470;28;20434;-72
2022/10/31 03:15:30;;;;;;;;;;;12.00;99.90;;;;;;5123450;28;19908;-73
2022/10/31 03:18:00;;;;;;;;;;;12.00;99.90;;;;;;5090417;28;19909;-73
2022/10/31 03:20:34;;;;;;;;;;;11.90;99.90;;;;;;5090343;28;19916;-72
2022/10/31 03:23:00;;;;;;;;;;;11.90;99.90;;;;;;5104560;28;19920;-72
2022/10/31 03:25:26;;;;;;;;;;;11.90;99.90;;;;;;5092679;28;20003;-73
2022/10/31 03:27:53;;;;;;;;;;;11.80;99.90;;;;;;5110688;28;19908;-72
2022/10/31 03:30:20;;;;;;;;;;;11.80;99.90;;;;;;5075612;28;20362;-73
2022/10/31 03:32:48;;;;;;;;;;;11.90;99.90;;;;;;5110663;28;20072;-72
2022/10/31 03:35:15;;;;;;;;;;;11.90;99.90;;;;;;5078039;28;19915;-73
2022/10/31 03:37:41;;;;;;;;;;;12.00;99.90;;;;;;5078872;28;20320;-72
2022/10/31 03:40:08;;;;;;;;;;;12.00;99.90;;;;;;5097087;28;19954;-73
2022/10/31 03:42:36;;;;;;;;;;;12.00;99.90;;;;;;5078467;28;19985;-72
2022/10/31 03:45:05;;;;;;;;;;;11.90;99.90;;;;;;5078647;28;19908;-72
2022/10/31 03:47:31;;;;;;;;;;;12.00;99.90;;;;;;5096929;28;20293;-73
2022/10/31 03:49:57;;;;;;;;;;;11.90;99.90;;;;;;5096534;28;19919;-73
2022/10/31 03:55:09;;;;;;;;;;;11.90;99.90;;;;;;5066095;22;19925;-73
2022/10/31 03:57:39;;;;;;;;;;;11.80;99.90;;;;;;5050982;28;19913;-72
2022/10/31 04:00:06;;;;;;;;;;;11.70;99.90;;;;;;5050928;28;19974;-73
2022/10/31 04:02:33;;;;;;;;;;;11.80;99.90;;;;;;5050882;28;19909;-73
2022/10/31 04:04:59;;;;;;;;;;;11.80;99.90;;;;;;5050833;28;20329;-73
2022/10/31 04:07:27;;;;;;;;;;;11.70;99.90;;;;;;5050846;28;19909;-72
2022/10/31 04:09:53;;;;;;;;;;;11.70;99.90;;;;;;5050788;28;20436;-72
2022/10/31 04:12:19;;;;;;;;;;;11.60;99.90;;;;;;5050753;28;19909;-73
2022/10/31 04:14:47;;;;;;;;;;;11.60;99.90;;;;;;5032828;28;19923;-72
2022/10/31 04:17:14;;;;;;;;;;;11.50;99.90;;;;;;5050878;28;19944;-73
2022/10/31 04:19:39;;;;;;;;;;;11.50;99.90;;;;;;5050574;28;19909;-72
2022/10/31 04:22:04;;;;;;;;;;;11.40;99.90;;;;;;5050536;28;19916;-72
2022/10/31 04:24:30;;;;;;;;;;;11.40;99.90;;;;;;5032640;28;20394;-72
2022/10/31 04:26:55;;;;;;;;;;;11.30;99.90;;;;;;5032955;28;19909;-72
2022/10/31 04:29:21;;;;;;;;;;;11.30;99.90;;;;;;5050465;28;19940;-73
2022/10/31 04:31:46;;;;;;;;;;;11.30;99.90;;;;;;5032611;28;20363;-73
2022/10/31 04:34:12;;;;;;;;;;;11.20;99.90;;;;;;5050246;28;20370;-72
2022/10/31 04:36:37;;;;;;;;;;;11.20;99.90;;;;;;5050222;28;20067;-72
2022/10/31 04:39:03;;;;;;;;;;;11.20;99.90;;;;;;5050189;28;19916;-71
2022/10/31 04:41:28;;;;;;;;;;;11.10;99.90;;;;;;5050148;28;20370;-71
2022/10/31 04:43:54;;;;;;;;;;;11.10;99.90;;;;;;5050102;28;19915;-72
2022/10/31 04:46:19;;;;;;;;;;;11.10;99.90;;;;;;5032301;28;19959;-73
2022/10/31 04:48:45;;;;;;;;;;;11.00;99.90;;;;;;5050319;28;19909;-73
2022/10/31 04:51:10;;;;;;;;;;;11.00;99.90;;;;;;5032142;28;20359;-72
2022/10/31 04:53:35;;;;;;;;;;;10.90;99.90;;;;;;5049626;28;19982;-72
2022/10/31 04:56:01;;;;;;;;;;;10.90;99.90;;;;;;5049914;28;19909;-73
2022/10/31 04:58:27;;;;;;;;;;;10.80;99.90;;;;;;5049890;28;19955;-72
2022/10/31 05:00:53;;;;;;;;;;;10.80;99.90;;;;;;5049794;28;19948;-72
2022/10/31 05:03:18;;;;;;;;;;;10.80;99.90;;;;;;5049752;28;20370;-73
2022/10/31 05:05:44;;;;;;;;;;;10.70;99.90;;;;;;5039879;28;19940;-73
2022/10/31 05:08:09;;;;;;;;;;;10.70;99.90;;;;;;5018668;28;19916;-72
2022/10/31 05:10:34;;;;;;;;;;;10.70;99.90;;;;;;5036329;28;19915;-72
2022/10/31 05:13:01;;;;;;;;;;;10.60;99.90;;;;;;5036213;28;19917;-73
2022/10/31 05:15:27;;;;;;;;;;;10.70;99.90;;;;;;5036227;28;20021;-73
2022/10/31 05:17:52;;;;;;;;;;;10.70;99.90;;;;;;5036200;28;19963;-73
2022/10/31 05:20:19;;;;;;;;;;;10.60;99.90;;;;;;5036244;28;20329;-73
2022/10/31 05:22:46;;;;;;;;;;;10.50;99.90;;;;;;5036115;28;19910;-72
2022/10/31 05:25:12;;;;;;;;;;;10.60;99.90;;;;;;5036039;28;19948;-72
2022/10/31 05:27:38;;;;;;;;;;;10.50;99.90;;;;;;5035955;28;19959;-72
2022/10/31 05:30:04;;;;;;;;;;;10.50;99.90;;;;;;5018314;28;19932;-72
2022/10/31 05:32:29;;;;;;;;;;;10.40;99.90;;;;;;5018230;28;19909;-73
2022/10/31 05:34:55;;;;;;;;;;;10.40;99.90;;;;;;5018139;28;19913;-72
2022/10/31 05:37:20;;;;;;;;;;;10.50;99.90;;;;;;5036130;28;19923;-72
2022/10/31 05:39:46;;;;;;;;;;;10.50;99.90;;;;;;5035805;28;20046;-72
2022/10/31 05:42:11;;;;;;;;;;;10.40;99.90;;;;;;5018002;28;19960;-72
2022/10/31 05:44:37;;;;;;;;;;;10.40;99.90;;;;;;5035697;28;19909;-72
2022/10/31 05:47:02;;;;;;;;;;;10.40;99.90;;;;;;5035703;28;19953;-72
2022/10/31 05:49:28;;;;;;;;;;;10.30;99.90;;;;;;5035664;28;19909;-72
2022/10/31 05:51:53;;;;;;;;;;;10.30;99.90;;;;;;5035695;28;19935;-72
2022/10/31 05:54:19;;;;;;;;;;;10.20;99.90;;;;;;5035306;28;19921;-72
2022/10/31 05:56:44;;;;;;;;;;;10.20;99.90;;;;;;5035497;28;19909;-71
2022/10/31 05:59:09;;;;;;;;;;;10.20;99.90;;;;;;5035426;28;19909;-72
2022/10/31 06:01:35;;;;;;;;;;;10.10;99.90;;;;;;5035458;28;20000;-72
2022/10/31 06:04:00;;;;;;;;;;;10.10;99.90;;;;;;5035412;28;20299;-72
2022/10/31 06:06:26;;;;;;;;;;;10.10;99.90;;;;;;5035340;28;19918;-72
2022/10/31 06:08:51;;;;;;;;;;;10.10;99.90;;;;;;5035271;28;19916;-72
2022/10/31 06:11:17;;;;;;;;;;;10.00;99.90;;;;;;5035222;28;19921;-72
2022/10/31 06:13:42;;;;;;;;;;;10.00;99.90;;;;;;5035127;28;19967;-71
2022/10/31 06:16:07;;;;;;;;;;;10.00;99.90;;;;;;5034844;28;20282;-71
2022/10/31 06:18:33;;;;;;;;;;;10.00;99.90;;;;;;5034696;28;19909;-72
2022/10/31 06:20:58;;;;;;;;;;;10.00;99.90;;;;;;5017300;28;19924;-72
2022/10/31 06:23:24;;;;;;;;;;;10.00;99.90;;;;;;5035083;28;20401;-71
2022/10/31 06:25:50;;;;;;;;;;;10.00;99.90;;;;;;5034907;28;19917;-72
2022/10/31 06:28:15;;;;;;;;;;;10.00;99.90;;;;;;5034884;28;19918;-72
2022/10/31 06:30:40;;;;;;;;;;;10.10;99.90;;;;;;5034841;28;20010;-71
2022/10/31 06:33:06;;;;;;;;;;;10.20;99.90;;;;;;5034761;28;19917;-72
2022/10/31 06:35:32;;;;;;;;;;;10.20;99.90;;;;;;5034752;28;19913;-71
2022/10/31 06:37:57;;;;;;;;;;;10.30;99.90;;;;;;5034691;28;19909;-71
2022/10/31 06:40:22;;;;;;;;;;;10.40;99.90;;;;;;5034685;28;20436;-72
2022/10/31 06:42:55;;;;;;;;;;;10.50;99.90;;;;;;5034609;28;19917;-71
2022/10/31 06:45:22;;;;;;;;;;;10.50;99.90;;;;;;5034527;28;19985;-72
2022/10/31 06:47:52;;;;;;;;;;;10.50;99.90;;;;;;5034438;28;19909;-71
2022/10/31 06:50:17;;;;;;;;;;;10.60;99.90;;;;;;5034469;28;20371;-71
2022/10/31 06:52:43;;;;;;;;;;;10.70;99.90;;;;;;5034365;28;19917;-72
2022/10/31 06:55:08;;;;;;;;;;;10.70;99.90;;;;;;5034233;28;19917;-71
2022/10/31 06:57:34;;;;;;;;;;;10.80;99.90;;;;;;5034374;28;20383;-71
2022/10/31 06:59:59;;;;;;;;;;;11.00;99.90;;;;;;5034360;28;20420;-72
2022/10/31 07:02:24;;;;;;;;;;;11.20;99.90;;;;;;5000258;28;19909;-71
2022/10/31 07:04:50;;;;;;;;;;;11.30;99.90;;;;;;5034200;28;19991;-72
2022/10/31 07:07:16;;;;;;;;;;;11.50;99.90;;;;;;5016473;28;19910;-72
2022/10/31 07:09:41;;;;;;;;;;;11.80;99.90;;;;;;5034100;28;19916;-72
2022/10/31 07:12:06;;;;;;;;;;;12.00;99.90;;;;;;5034051;28;19913;-72
2022/10/31 07:14:32;;;;;;;;;;;12.10;99.90;;;;;;5033977;28;20337;-72
2022/10/31 07:16:57;;;;;;;;;;;12.40;99.90;;;;;;5016277;28;19909;-71
2022/10/31 07:19:23;;;;;;;;;;;12.60;99.90;;;;;;5016307;28;19916;-72
2022/10/31 07:21:48;;;;;;;;;;;12.80;99.90;;;;;;5033932;28;19915;-72
2022/10/31 07:24:14;;;;;;;;;;;13.10;99.90;;;;;;5033832;28;19916;-72
2022/10/31 07:26:39;;;;;;;;;;;13.30;99.90;;;;;;5033819;28;19917;-72
2022/10/31 07:29:05;;;;;;;;;;;13.50;99.90;;;;;;5033592;28;19909;-72
2022/10/31 07:31:30;;;;;;;;;;;13.80;99.90;;;;;;5033770;28;19916;-72
2022/10/31 07:33:55;;;;;;;;;;;14.00;99.90;;;;;;5033661;28;19940;-72
2022/10/31 07:36:21;;;;;;;;;;;14.20;99.90;;;;;;5033743;28;19917;-73
2022/10/31 07:38:46;;;;;;;;;;;14.40;99.90;;;;;;5033747;28;19913;-73
2022/10/31 07:41:12;;;;;;;;;;;14.60;99.90;;;;;;4999654;28;20283;-73
2022/10/31 07:43:37;;;;;;;;;;;14.80;99.90;;;;;;5033582;28;19910;-73
2022/10/31 07:46:03;;;;;;;;;;;14.90;99.90;;;;;;5033591;28;20005;-73
2022/10/31 07:48:28;;;;;;;;;;;15.10;99.90;;;;;;5033603;28;19909;-73
2022/10/31 07:50:54;;;;;;;;;;;15.20;99.90;;;;;;5033619;28;19909;-73
2022/10/31 07:53:20;;;;;;;;;;;15.40;99.90;;;;;;5015514;28;19964;-73
2022/10/31 07:55:45;;;;;;;;;;;15.30;99.90;;;;;;5033579;28;19917;-73
2022/10/31 07:58:12;;;;;;;;;;;15.60;99.90;;;;;;5033515;28;19924;-73
2022/10/31 08:00:38;;;;;;;;;;;15.80;99.90;;;;;;4999388;28;20363;-73
2022/10/31 08:03:09;;;;;;;;;;;15.70;99.90;;;;;;5033464;28;19909;-73
2022/10/31 08:05:34;;;;;;;;;;;15.70;99.90;;;;;;5033403;28;19909;-73
2022/10/31 08:08:00;;;;;;;;;;;15.60;99.90;;;;;;5033426;28;19923;-73
2022/10/31 08:10:26;;;;;;;;;;;15.40;99.90;;;;;;5016093;28;19909;-73
2022/10/31 08:12:56;;;;;;;;;;;15.20;99.90;;;;;;5033362;28;19913;-73
2022/10/31 08:15:21;;;;;;;;;;;15.10;99.90;;;;;;5015889;28;20259;-73
2022/10/31 08:17:47;;;;;;;;;;;15.00;99.90;;;;;;5033310;28;19920;-73
2022/10/31 08:20:12;;;;;;;;;;;14.80;99.90;;;;;;5033245;28;19910;-73
2022/10/31 08:22:38;;;;;;;;;;;14.80;99.90;;;;;;5033211;28;19916;-73
2022/10/31 08:25:03;;;;;;;;;;;14.60;99.90;;;;;;5033198;28;20383;-73
2022/10/31 08:27:29;;;;;;;;;;;14.70;99.90;;;;;;5033199;28;20390;-72
2022/10/31 08:29:54;;;;;;;;;;;14.70;99.90;;;;;;5033187;28;19909;-73
2022/10/31 08:32:20;;;;;;;;;;;14.80;99.90;;;;;;5033094;28;19973;-73
2022/10/31 08:34:45;;;;;;;;;;;14.80;99.90;;;;;;5015476;28;19924;-73
2022/10/31 08:37:11;;;;;;;;;;;14.80;99.90;;;;;;5033105;28;19909;-73
2022/10/31 08:39:36;;;;;;;;;;;14.80;99.90;;;;;;5033299;28;20291;-73
2022/10/31 08:42:02;;;;;;;;;;;15.10;99.90;;;;;;5036888;28;19956;-73
2022/10/31 08:44:27;;;;;;;;;;;15.20;99.90;;;;;;5036807;28;19909;-73
2022/10/31 08:46:53;;;;;;;;;;;15.50;99.90;;;;;;5036821;28;20000;-73
2022/10/31 08:49:18;;;;;;;;;;;15.80;99.90;;;;;;5018880;28;20363;-73
2022/10/31 08:51:47;;;;;;;;;;;16.20;99.90;;;;;;5018938;28;20420;-73
2022/10/31 08:54:12;;;;;;;;;;;16.50;99.90;;;;;;5036301;28;19921;-73
2022/10/31 08:56:37;;;;;;;;;;;16.60;99.90;;;;;;5018902;28;20348;-73
2022/10/31 08:59:03;;;;;;;;;;;16.60;99.90;;;;;;5036520;28;19916;-73
2022/10/31 09:01:40;;;;;;;;;;;16.70;99.90;;;;;;5036511;28;20000;-73
2022/10/31 09:04:05;;;;;;;;;;;16.70;99.90;;;;;;5036363;28;20345;-73
2022/10/31 09:06:31;;;;;;;;;;;16.90;99.90;;;;;;5036381;28;19998;-73
2022/10/31 09:08:57;;;;;;;;;;;17.20;99.90;;;;;;5018752;28;19963;-73
2022/10/31 09:11:22;;;;;;;;;;;17.70;99.90;;;;;;5036246;28;19995;-73
2022/10/31 09:13:48;;;;;;;;;;;17.70;99.90;;;;;;5036201;28;19921;-73
2022/10/31 09:16:13;;;;;;;;;;;17.80;99.90;;;;;;5036221;28;19915;-74
2022/10/31 09:18:39;;;;;;;;;;;17.80;99.90;;;;;;5036187;28;19963;-73
2022/10/31 09:21:04;;;;;;;;;;;17.90;99.90;;;;;;5002020;28;19967;-73
2022/10/31 09:23:30;;;;;;;;;;;18.30;99.90;;;;;;5018281;28;19909;-73
2022/10/31 09:25:55;;;;;;;;;;;18.60;99.90;;;;;;5036011;28;20008;-74
2022/10/31 09:28:22;;;;;;;;;;;18.60;99.90;;;;;;5001855;28;19959;-73
2022/10/31 09:30:48;;;;;;;;;;;18.60;99.90;;;;;;5035933;28;19913;-73
2022/10/31 09:33:14;;;;;;;;;;;18.70;99.90;;;;;;5035843;28;19985;-73
2022/10/31 09:35:40;;;;;;;;;;;18.80;99.90;;;;;;5035808;28;20014;-73
2022/10/31 09:38:06;;;;;;;;;;;19.00;99.90;;;;;;5035789;28;19909;-74
2022/10/31 09:40:40;;;;;;;;;;;19.40;99.90;;;;;;5035764;28;19909;-73
2022/10/31 09:43:15;;;;;;;;;;;19.60;99.90;;;;;;5035594;28;20281;-73
2022/10/31 09:46:01;;;;;;;;;;;19.70;99.90;;;;;;5035512;28;19956;-73
2022/10/31 09:48:32;;;;;;;;;;;19.60;99.90;;;;;;5035585;28;19913;-72
2022/10/31 09:51:04;;;;;;;;;;;19.90;99.90;;;;;;5035358;28;20000;-73
2022/10/31 09:53:36;;;;;;;;;;;19.70;99.90;;;;;;5035244;28;19917;-73
2022/10/31 09:56:04;;;;;;;;;;;19.70;99.90;;;;;;5017626;28;19909;-73
2022/10/31 09:58:30;;;;;;;;;;;19.60;99.90;;;;;;5017545;28;20051;-73
2022/10/31 10:00:58;;;;;;;;;;;19.70;99.90;;;;;;5035401;28;19952;-73
2022/10/31 10:03:34;;;;;;;;;;;19.70;99.90;;;;;;5035299;28;20389;-73
2022/10/31 10:06:03;;;;;;;;;;;19.60;99.90;;;;;;5035314;28;20366;-72
2022/10/31 10:08:31;;;;;;;;;;;19.30;99.90;;;;;;5017395;28;19959;-73
2022/10/31 10:10:59;;;;;;;;;;;19.70;99.90;;;;;;5035185;28;20297;-73
2022/10/31 10:13:45;;;;;;;;;;;20.20;99.90;;;;;;5035208;28;19921;-73
2022/10/31 10:16:33;;;;;;;;;;;20.20;99.90;;;;;;5035093;28;20012;-73
2022/10/31 10:19:18;;;;;;;;;;;20.00;99.90;;;;;;5035145;28;19952;-72
2022/10/31 10:21:53;;;;;;;;;;;19.60;99.90;;;;;;5034978;28;19909;-73
2022/10/31 10:24:32;;;;;;;;;;;19.60;99.90;;;;;;5034958;28;19909;-73
2022/10/31 10:27:17;;;;;;;;;;;19.60;99.90;;;;;;5034865;28;19921;-72
2022/10/31 10:29:47;;;;;;;;;;;20.00;99.90;;;;;;5016961;28;19909;-73
2022/10/31 10:32:17;;;;;;;;;;;20.00;99.90;;;;;;5017059;28;19916;-73
2022/10/31 10:34:46;;;;;;;;;;;20.50;99.90;;;;;;5034665;28;20283;-73
2022/10/31 10:37:31;;;;;;;;;;;20.70;99.90;;;;;;5034672;28;20375;-73
2022/10/31 10:40:01;;;;;;;;;;;20.80;99.90;;;;;;5034635;28;19909;-74
2022/10/31 10:48:05;;;;;;;;;;;20.40;99.90;;;;;;5034316;28;19909;-73
2022/10/31 10:50:34;;;;;;;;;;;19.90;99.90;;;;;;5034469;28;20367;-73
2022/10/31 10:53:06;;;;;;;;;;;19.50;99.90;;;;;;5016555;28;19975;-73
2022/10/31 10:55:39;;;;;;;;;;;19.00;99.90;;;;;;5034205;28;19962;-75
2022/10/31 10:58:07;;;;;;;;;;;18.70;99.90;;;;;;5034272;28;19909;-74
2022/10/31 11:00:38;;;;;;;;;;;18.80;99.90;;;;;;5015740;28;20385;-73
2022/10/31 11:03:04;;;;;;;;;;;18.90;99.90;;;;;;5020016;28;20004;-73
2022/10/31 11:05:34;;;;;;;;;;;18.70;99.90;;;;;;5030835;28;19986;-71
2022/10/31 11:08:00;;;;;;;;;;;18.90;99.90;;;;;;5027225;28;19920;-73
2022/10/31 11:10:26;;;;;;;;;;;19.00;99.90;;;;;;5025536;28;19913;-73
2022/10/31 11:13:12;;;;;;;;;;;19.00;99.90;;;;;;5029338;28;19959;-73
2022/10/31 11:15:50;;;;;;;;;;;18.90;99.90;;;;;;5031894;28;19917;-73
2022/10/31 11:18:24;;;;;;;;;;;18.80;99.90;;;;;;5031378;28;20306;-72
2022/10/31 11:20:52;;;;;;;;;;;19.00;99.90;;;;;;5029514;28;19913;-73
2022/10/31 11:23:18;;;;;;;;;;;18.90;99.90;;;;;;5033733;28;19913;-73
2022/10/31 11:26:00;;;;;;;;;;;18.90;99.90;;;;;;5014540;28;19914;-73
2022/10/31 11:28:29;;;;;;;;;;;19.00;99.90;;;;;;5028273;28;19913;-73
2022/10/31 11:30:56;;;;;;;;;;;19.20;99.90;;;;;;5025226;28;19924;-71
2022/10/31 11:33:28;;;;;;;;;;;19.30;99.90;;;;;;5014443;28;20437;-73
2022/10/31 11:35:54;;;;;;;;;;;19.30;99.90;;;;;;5027881;28;20007;-74
2022/10/31 11:38:21;;;;;;;;;;;19.70;99.90;;;;;;5029060;28;19987;-73
2022/10/31 11:40:55;;;;;;;;;;;19.90;99.90;;;;;;5026996;28;19914;-73
2022/10/31 11:43:21;;;;;;;;;;;19.80;99.90;;;;;;5025597;28;20362;-73
2022/10/31 11:45:46;;;;;;;;;;;19.70;99.90;;;;;;5032303;28;19913;-74
2022/10/31 11:48:15;;;;;;;;;;;19.90;99.90;;;;;;5032687;28;20371;-73
2022/10/31 11:50:41;;;;;;;;;;;20.00;99.90;;;;;;5023636;28;20382;-73
2022/10/31 11:53:16;;;;;;;;;;;19.90;99.90;;;;;;5030400;28;19921;-73
2022/10/31 11:55:42;;;;;;;;;;;19.80;99.90;;;;;;5031981;28;19921;-74
2022/10/31 11:58:24;;;;;;;;;;;19.60;99.90;;;;;;5032980;28;20437;-73
2022/10/31 12:00:51;;;;;;;;;;;19.60;99.90;;;;;;5025110;28;19922;-73
2022/10/31 12:06:21;;;;;;;;;;;19.60;99.90;;;;;;5080164;27;20293;-71
2022/10/31 12:08:47;;;;;;;;;;;19.60;99.90;;;;;;5066106;28;19912;-71
2022/10/31 12:11:32;;;;;;;;;;;19.50;99.90;;;;;;5063346;28;19963;-70
2022/10/31 12:14:01;;;;;;;;;;;19.60;99.90;;;;;;5096542;28;20351;-70
2022/10/31 12:16:31;;;;;;;;;;;19.60;99.90;;;;;;5068344;28;19913;-71
2022/10/31 12:18:59;;;;;;;;;;;19.40;99.90;;;;;;5069430;28;20389;-71
2022/10/31 12:21:30;;;;;;;;;;;19.30;99.90;;;;;;5069933;28;19908;-71
2022/10/31 12:24:16;;;;;;;;;;;19.30;99.90;;;;;;5070007;28;19921;-71
2022/10/31 12:26:47;;;;;;;;;;;19.20;99.90;;;;;;5068376;28;19908;-72
2022/10/31 12:29:26;;;;;;;;;;;19.20;99.90;;;;;;5075755;28;19913;-72
2022/10/31 12:32:00;;;;;;;;;;;19.20;99.90;;;;;;5069078;28;20011;-71
2022/10/31 12:34:46;;;;;;;;;;;19.30;99.90;;;;;;5103850;28;19927;-71
2022/10/31 12:37:31;;;;;;;;;;;19.20;99.90;;;;;;5072654;28;19909;-72
2022/10/31 12:40:16;;;;;;;;;;;19.10;99.90;;;;;;5086477;28;19912;-72
2022/10/31 12:43:02;;;;;;;;;;;19.00;99.90;;;;;;5074350;28;19956;-72
2022/10/31 12:45:38;;;;;;;;;;;19.00;99.90;;;;;;5076582;28;19924;-71
2022/10/31 12:48:12;;;;;;;;;;;19.10;99.90;;;;;;5080905;28;19909;-72
2022/10/31 12:50:58;;;;;;;;;;;19.10;99.90;;;;;;5082234;28;20365;-72
2022/10/31 12:53:34;;;;;;;;;;;19.10;99.90;;;;;;5069380;28;19944;-72
2022/10/31 12:56:12;;;;;;;;;;;19.20;99.90;;;;;;5066219;28;19908;-72
2022/10/31 12:58:43;;;;;;;;;;;19.30;99.90;;;;;;5067740;28;19913;-72
2022/10/31 13:01:12;;;;;;;;;;;19.40;99.90;;;;;;5066584;28;20000;-72
2022/10/31 13:03:44;;;;;;;;;;;19.50;99.90;;;;;;5073360;28;20018;-72
2022/10/31 13:06:13;;;;;;;;;;;19.70;99.90;;;;;;5105146;28;20406;-72
2022/10/31 13:08:43;;;;;;;;;;;19.60;99.90;;;;;;5092472;28;19944;-72
2022/10/31 13:11:14;;;;;;;;;;;19.70;99.90;;;;;;5100044;28;19908;-72
2022/10/31 13:13:42;;;;;;;;;;;19.80;99.90;;;;;;5078128;28;19998;-73
2022/10/31 13:16:16;;;;;;;;;;;19.90;99.90;;;;;;5090112;28;19908;-72
2022/10/31 13:18:46;;;;;;;;;;;19.60;99.90;;;;;;5079926;28;19916;-72
2022/10/31 13:21:17;;;;;;;;;;;19.60;99.90;;;;;;5086273;28;19916;-72
2022/10/31 13:23:44;;;;;;;;;;;19.70;99.90;;;;;;5078375;28;19927;-71
2022/10/31 13:26:12;;;;;;;;;;;19.70;99.90;;;;;;5053788;28;20039;-73
2022/10/31 13:28:58;;;;;;;;;;;19.60;99.90;;;;;;5075350;28;20011;-72
2022/10/31 13:31:23;;;;;;;;;;;19.50;99.90;;;;;;5057177;28;20025;-71
2022/10/31 13:33:53;;;;;;;;;;;19.60;99.90;;;;;;5075984;28;19909;-72
2022/10/31 13:36:25;;;;;;;;;;;19.60;99.90;;;;;;5057964;28;20024;-72
2022/10/31 13:38:57;;;;;;;;;;;19.50;99.90;;;;;;5075675;28;19909;-72
2022/10/31 13:41:34;;;;;;;;;;;19.50;99.90;;;;;;5075918;28;19908;-73
2022/10/31 13:44:09;;;;;;;;;;;19.40;99.90;;;;;;5075804;28;20284;-72
2022/10/31 13:46:37;;;;;;;;;;;19.30;99.90;;;;;;5075807;28;19915;-72
2022/10/31 13:49:03;;;;;;;;;;;19.30;99.90;;;;;;5057852;28;19912;-72
2022/10/31 13:51:30;;;;;;;;;;;19.40;99.90;;;;;;5075718;28;19915;-72
2022/10/31 13:53:58;;;;;;;;;;;19.50;99.90;;;;;;5075646;28;20109;-72
2022/10/31 13:56:28;;;;;;;;;;;19.40;99.90;;;;;;5075563;28;19908;-72
2022/10/31 13:58:59;;;;;;;;;;;19.40;99.90;;;;;;5075474;28;19908;-72
2022/10/31 14:01:25;;;;;;;;;;;19.40;99.90;;;;;;5075535;28;19912;-72
2022/10/31 14:04:10;;;;;;;;;;;19.50;99.90;;;;;;5075112;28;19915;-71
2022/10/31 14:06:38;;;;;;;;;;;19.50;99.90;;;;;;5075336;28;19912;-71
2022/10/31 14:09:04;;;;;;;;;;;19.50;99.90;;;;;;5075384;28;20003;-71
2022/10/31 14:11:29;;;;;;;;;;;19.40;99.90;;;;;;5057445;28;20405;-72
2022/10/31 14:13:56;;;;;;;;;;;19.40;99.90;;;;;;5075305;28;19951;-72
2022/10/31 14:16:24;;;;;;;;;;;19.30;99.90;;;;;;5075196;28;20359;-72
2022/10/31 14:18:57;;;;;;;;;;;19.20;99.90;;;;;;5075249;28;19977;-72
2022/10/31 14:24:01;;;;;;;;;;;19.10;99.90;;;;;;5091382;27;19912;-70
2022/10/31 14:29:21;;;;;;;;;;;19.00;99.90;;;;;;5132205;27;20377;-72
2022/10/31 14:31:58;;;;;;;;;;;19.00;99.90;;;;;;5132063;28;20372;-72
2022/10/31 14:34:34;;;;;;;;;;;19.00;99.90;;;;;;5113733;28;20326;-72
2022/10/31 14:37:08;;;;;;;;;;;18.90;99.90;;;;;;5131862;28;20396;-72
2022/10/31 14:39:41;;;;;;;;;;;18.90;99.90;;;;;;5131753;28;19908;-72
2022/10/31 14:42:17;;;;;;;;;;;18.90;99.90;;;;;;5131819;28;20014;-72
2022/10/31 14:45:02;;;;;;;;;;;18.80;99.90;;;;;;5131696;28;19908;-72